メインページ
METAR-TAF:

METAR-TAF

空港 :

Chetwynd, ブリティッシュコロンビア州, カナダ

緯度: 55-42N, 経度: 121-38W, 海抜: 609m

現時点の気象観測

当レポートは9時間41分前の00:00(UTC)に作成
の風 8kt、南/南東から南西の間で変化する
気温 7°C
湿度 57%
気圧 1014 hPa
視程: 56.3km
高度4000ftの雲はほとんどない
高度5000ftの雲はほとんどない
高度12000ftの雲は散在している
高度21000ftの曇り

METAR: CYCQ 140000Z 18008KT 160V230 35SM FEW040 FEW050 SCT120 OVC210 07/M01 A2994 RMK SC1SC1AS2CI5 SC TR LAST STFD OBS/NEXT 141400Z SLP161

時間: 02:41 (09:41 UTC)


TAF: 見つかりません

4,000以上の空港の気象観測と天気予報(METAR報とTAF報)

利用可能な観測所は地図上に黄色い丸と赤い丸で示す。

丸の上にカーソルを重ねると観測所名を参照できる。

次にクリックすると気象観測と天気予報を参照できる。

マップの切り替え:黒色「×」印の緑ボタンをクリックして拡大、「-」印の緑ボタンをクリックして縮小、緑色の三角印をクリックして隣りの地図に切り替え


METAR-TAF: